createdAt,value
2018-07-24T00:02:21.094Z,101349.55
2018-07-24T00:04:50.447Z,101348.28
2018-07-24T00:07:19.814Z,101346.69
2018-07-24T00:09:49.422Z,101346.74
2018-07-24T00:12:19.022Z,101343.12
2018-07-24T00:14:48.350Z,101344.28
2018-07-24T00:17:17.405Z,101348.02
2018-07-24T00:19:46.795Z,101340.38
2018-07-24T00:22:16.158Z,101336.13
2018-07-24T00:24:45.603Z,101337.02
2018-07-24T00:27:14.974Z,101339.65
2018-07-24T00:29:44.382Z,101329.55
2018-07-24T00:32:13.805Z,101330.00
2018-07-24T00:34:43.126Z,101328.48
2018-07-24T00:37:12.481Z,101318.91
2018-07-24T00:39:41.846Z,101320.70
2018-07-24T00:42:11.217Z,101318.64
2018-07-24T00:44:40.580Z,101321.73
2018-07-24T00:47:10.237Z,101322.16
2018-07-24T00:49:40.440Z,101322.48
2018-07-24T00:52:10.137Z,101321.73
2018-07-24T00:54:39.462Z,101319.34
2018-07-24T00:57:08.837Z,101319.45
2018-07-24T00:59:37.987Z,101320.28
2018-07-24T01:02:07.396Z,101320.34
2018-07-24T01:04:36.760Z,101314.53
2018-07-24T01:07:06.453Z,101319.21
2018-07-24T01:09:35.516Z,101317.16
2018-07-24T01:12:04.876Z,101320.55
2018-07-24T01:14:34.279Z,101317.61
2018-07-24T01:17:03.598Z,101309.24
2018-07-24T01:19:32.940Z,101305.50
2018-07-24T01:22:02.406Z,101306.34
2018-07-24T01:24:31.753Z,101309.03
2018-07-24T01:27:01.285Z,101308.41
2018-07-24T01:29:30.654Z,101312.06
2018-07-24T01:32:00.028Z,101292.84
2018-07-24T01:34:29.416Z,101306.68
2018-07-24T01:36:58.763Z,101308.36
2018-07-24T01:39:28.117Z,101307.48
2018-07-24T01:41:57.468Z,101305.38
2018-07-24T01:44:26.804Z,101308.36
2018-07-24T01:46:56.197Z,101301.26
2018-07-24T01:49:25.588Z,101305.92
2018-07-24T01:51:54.886Z,101310.09
2018-07-24T01:54:24.255Z,101308.98
2018-07-24T01:56:53.694Z,101314.00
2018-07-24T01:59:23.013Z,101303.86
2018-07-24T02:01:52.095Z,101309.33
2018-07-24T02:04:21.426Z,101313.58
2018-07-24T02:06:50.810Z,101312.73
2018-07-24T02:09:20.169Z,101312.01
2018-07-24T02:11:49.533Z,101310.72
2018-07-24T02:14:18.862Z,101310.83
2018-07-24T02:16:48.307Z,101309.26
2018-07-24T02:19:17.670Z,101308.83
2018-07-24T02:21:47.039Z,101304.10
2018-07-24T02:24:16.120Z,101305.58
2018-07-24T02:26:45.834Z,101308.17
2018-07-24T02:29:15.161Z,101309.89
2018-07-24T02:31:44.516Z,101306.42
2018-07-24T02:34:14.009Z,101303.02
2018-07-24T02:36:43.338Z,101300.08
2018-07-24T02:39:14.399Z,101296.37
2018-07-24T02:41:43.486Z,101296.83
2018-07-24T02:44:12.870Z,101300.12
2018-07-24T02:46:42.202Z,101306.17
2018-07-24T02:49:11.591Z,101302.42
2018-07-24T02:51:40.949Z,101303.20
2018-07-24T02:54:10.350Z,101295.22
2018-07-24T02:56:39.695Z,101301.66
2018-07-24T02:59:09.022Z,101297.77
2018-07-24T03:01:39.375Z,101297.03
2018-07-24T03:04:09.695Z,101302.95
2018-07-24T03:06:39.061Z,101304.14
2018-07-24T03:09:10.466Z,101303.40
2018-07-24T03:11:39.972Z,101304.66
2018-07-24T03:14:09.478Z,101300.03
2018-07-24T03:16:38.850Z,101302.20
2018-07-24T03:19:08.338Z,101296.35
2018-07-24T03:21:37.794Z,101296.32
2018-07-24T03:24:07.192Z,101297.16
2018-07-24T03:26:36.565Z,101296.74
2018-07-24T03:29:05.627Z,101297.09
2018-07-24T03:31:34.927Z,101294.22
2018-07-24T03:34:04.559Z,101293.80
2018-07-24T03:36:33.874Z,101296.25
2018-07-24T03:39:03.289Z,101292.47
2018-07-24T03:41:32.626Z,101292.51
2018-07-24T03:44:01.974Z,101301.75
2018-07-24T03:46:31.282Z,101295.03
2018-07-24T03:49:00.414Z,101298.88
2018-07-24T03:51:29.788Z,101300.52
2018-07-24T03:53:59.182Z,101300.94
2018-07-24T03:56:28.297Z,101303.46
2018-07-24T03:58:57.891Z,101300.88
2018-07-24T04:01:27.085Z,101299.91
2018-07-24T04:03:56.695Z,101300.29
2018-07-24T04:06:26.197Z,101298.58
2018-07-24T04:08:55.546Z,101304.45
2018-07-24T04:11:24.933Z,101303.55
2018-07-24T04:13:54.357Z,101302.56
2018-07-24T04:16:23.754Z,101298.70
2018-07-24T04:18:53.117Z,101298.22
2018-07-24T04:21:22.499Z,101293.05
2018-07-24T04:23:51.813Z,101295.03
2018-07-24T04:26:21.301Z,101294.11
2018-07-24T04:28:50.714Z,101292.25
2018-07-24T04:31:20.518Z,101286.28
2018-07-24T04:33:49.862Z,101288.34
2018-07-24T04:36:19.193Z,101286.23
2018-07-24T04:38:48.605Z,101289.04
2018-07-24T04:41:18.014Z,101293.58
2018-07-24T04:43:47.660Z,101285.83
2018-07-24T04:46:17.015Z,101289.46
2018-07-24T04:48:46.418Z,101285.48
2018-07-24T04:51:15.854Z,101295.01
2018-07-24T04:53:45.355Z,101289.79
2018-07-24T04:56:14.721Z,101297.63
2018-07-24T04:58:44.169Z,101298.37
2018-07-24T05:01:13.682Z,101289.31
2018-07-24T05:03:43.035Z,101292.02
2018-07-24T05:06:12.378Z,101290.95
2018-07-24T05:08:41.717Z,101296.61
2018-07-24T05:11:11.029Z,101296.78
2018-07-24T05:13:40.618Z,101293.45
2018-07-24T05:16:09.957Z,101295.72
2018-07-24T05:18:39.492Z,101292.13
2018-07-24T05:21:09.045Z,101292.58
2018-07-24T05:23:38.491Z,101291.05
2018-07-24T05:26:07.746Z,101285.13
2018-07-24T05:28:37.113Z,101291.22
2018-07-24T05:31:06.458Z,101290.27
2018-07-24T05:33:35.936Z,101294.49
2018-07-24T05:36:05.474Z,101289.19
2018-07-24T05:38:34.853Z,101289.87
2018-07-24T05:41:04.249Z,101288.71
2018-07-24T05:43:33.674Z,101290.14
2018-07-24T05:46:02.999Z,101291.97
2018-07-24T05:48:33.462Z,101293.80
2018-07-24T05:51:02.769Z,101295.47
2018-07-24T05:53:32.184Z,101293.16
2018-07-24T05:56:01.661Z,101292.17
2018-07-24T05:58:31.187Z,101296.44
2018-07-24T06:01:00.598Z,101297.47
2018-07-24T06:03:30.125Z,101298.12
2018-07-24T06:05:59.605Z,101298.61
2018-07-24T06:08:29.849Z,101290.62
2018-07-24T06:10:59.194Z,101292.16
2018-07-24T06:13:28.626Z,101292.05
2018-07-24T06:15:58.313Z,101294.46
2018-07-24T06:18:27.757Z,101293.77
2018-07-24T06:20:57.272Z,101291.52
2018-07-24T06:23:26.673Z,101290.72
2018-07-24T06:25:56.048Z,101293.19
2018-07-24T06:28:25.501Z,101296.15
2018-07-24T06:30:55.017Z,101294.30
2018-07-24T06:33:24.385Z,101294.68
2018-07-24T06:35:53.908Z,101298.68
2018-07-24T06:38:23.641Z,101293.16
2018-07-24T06:40:53.097Z,101301.08
2018-07-24T06:43:22.497Z,101304.41
2018-07-24T06:45:51.846Z,101298.66
2018-07-24T06:48:21.241Z,101298.67
2018-07-24T06:50:50.579Z,101300.23
2018-07-24T06:53:20.075Z,101299.05
2018-07-24T06:55:49.441Z,101303.06
2018-07-24T06:58:18.853Z,101301.61
2018-07-24T07:00:48.286Z,101301.20
2018-07-24T07:03:17.745Z,101300.89
2018-07-24T07:05:47.142Z,101301.53
2018-07-24T07:08:16.550Z,101296.80
2018-07-24T07:10:46.033Z,101295.21
2018-07-24T07:13:15.496Z,101294.02
2018-07-24T07:15:45.002Z,101294.83
2018-07-24T07:18:14.336Z,101294.83
2018-07-24T07:20:43.814Z,101293.38
2018-07-24T07:23:13.319Z,101293.64
2018-07-24T07:25:42.398Z,101290.67
2018-07-24T07:28:11.752Z,101291.15
2018-07-24T07:30:41.182Z,101290.49
2018-07-24T07:33:10.521Z,101293.62
2018-07-24T07:35:39.970Z,101296.66
2018-07-24T07:38:09.492Z,101289.97
2018-07-24T07:40:38.892Z,101295.83
2018-07-24T07:43:08.321Z,101286.50
2018-07-24T07:45:37.717Z,101283.95
2018-07-24T07:48:07.248Z,101282.61
2018-07-24T07:50:36.654Z,101284.70
2018-07-24T07:53:06.030Z,101279.95
2018-07-24T07:55:35.478Z,101281.00
2018-07-24T07:58:04.854Z,101275.59
2018-07-24T08:00:34.209Z,101275.30
2018-07-24T08:03:03.669Z,101276.64
2018-07-24T08:05:33.127Z,101277.16
2018-07-24T08:08:02.570Z,101277.94
2018-07-24T08:10:31.957Z,101277.65
2018-07-24T08:13:01.383Z,101278.67
2018-07-24T08:15:30.804Z,101269.98
2018-07-24T08:18:00.221Z,101267.48
2018-07-24T08:20:29.697Z,101265.56
2018-07-24T08:22:59.097Z,101259.31
2018-07-24T08:25:28.610Z,101265.02
2018-07-24T08:27:58.006Z,101259.38
2018-07-24T08:30:27.499Z,101257.06
2018-07-24T08:32:57.049Z,101255.49
2018-07-24T08:35:26.476Z,101256.76
2018-07-24T08:37:55.906Z,101256.52
2018-07-24T08:40:25.932Z,101257.30
2018-07-24T08:42:55.326Z,101257.95
2018-07-24T08:45:24.633Z,101257.00
2018-07-24T08:47:54.062Z,101257.88
2018-07-24T08:50:23.466Z,101257.65
2018-07-24T08:52:52.971Z,101252.47
2018-07-24T08:55:22.974Z,101247.35
2018-07-24T08:57:51.989Z,101242.34
2018-07-24T09:00:21.306Z,101245.39
2018-07-24T09:02:50.370Z,101247.35
2018-07-24T09:05:19.893Z,101245.62
2018-07-24T09:07:49.242Z,101245.28
2018-07-24T09:10:19.428Z,101238.44
2018-07-24T09:12:48.916Z,101244.36
2018-07-24T09:15:19.344Z,101248.94
2018-07-24T09:17:48.733Z,101255.16
2018-07-24T09:20:18.109Z,101249.30
2018-07-24T09:22:47.457Z,101248.42
2018-07-24T09:25:16.917Z,101252.17
2018-07-24T09:27:46.889Z,101247.20
2018-07-24T09:30:17.301Z,101242.92
2018-07-24T09:32:47.946Z,101242.14
2018-07-24T09:35:17.321Z,101240.99
2018-07-24T09:37:47.119Z,101246.06
2018-07-24T09:40:16.969Z,101251.63
2018-07-24T09:42:47.337Z,101248.01
2018-07-24T09:45:17.705Z,101245.62
2018-07-24T09:47:47.086Z,101249.06
2018-07-24T09:50:16.658Z,101240.35
2018-07-24T09:52:47.332Z,101241.63
2018-07-24T09:55:16.752Z,101243.64
2018-07-24T09:57:46.607Z,101237.51
2018-07-24T10:00:16.050Z,101234.16
2018-07-24T10:02:45.494Z,101239.22
2018-07-24T10:05:14.833Z,101236.16
2018-07-24T10:07:44.170Z,101231.25
2018-07-24T10:10:13.606Z,101235.53
2018-07-24T10:12:43.047Z,101234.44
2018-07-24T10:15:13.339Z,101227.53
2018-07-24T10:17:42.786Z,101226.82
2018-07-24T10:20:12.595Z,101230.11
2018-07-24T10:22:42.051Z,101231.13
2018-07-24T10:25:11.722Z,101228.20
2018-07-24T10:27:41.401Z,101222.42
2018-07-24T10:30:10.656Z,101227.24
2018-07-24T10:32:39.974Z,101228.08
2018-07-24T10:35:09.398Z,101225.12
2018-07-24T10:37:38.879Z,101224.14
2018-07-24T10:40:08.305Z,101221.17
2018-07-24T10:42:37.658Z,101219.64
2018-07-24T10:45:07.098Z,101219.45
2018-07-24T10:47:36.557Z,101213.11
2018-07-24T10:50:06.541Z,101209.63
2018-07-24T10:52:35.935Z,101206.76
2018-07-24T10:55:05.970Z,101202.02
2018-07-24T10:57:35.825Z,101207.15
2018-07-24T11:00:05.864Z,101206.32
2018-07-24T11:02:35.506Z,101206.95
2018-07-24T11:05:04.903Z,101197.84
2018-07-24T11:07:34.385Z,101195.33
2018-07-24T11:10:03.819Z,101192.51
2018-07-24T11:12:33.429Z,101187.10
2018-07-24T11:15:02.933Z,101188.48
2018-07-24T11:17:32.417Z,101187.46
2018-07-24T11:20:01.845Z,101186.94
2018-07-24T11:22:31.265Z,101183.20
2018-07-24T11:25:00.829Z,101183.08
2018-07-24T11:27:30.198Z,101185.92
2018-07-24T11:29:59.645Z,101180.55
2018-07-24T11:32:29.520Z,101171.69
2018-07-24T11:34:58.958Z,101173.38
2018-07-24T11:37:29.317Z,101173.14
2018-07-24T11:39:58.987Z,101172.09
2018-07-24T11:42:28.417Z,101169.92
2018-07-24T11:44:57.815Z,101164.06
2018-07-24T11:47:27.168Z,101170.91
2018-07-24T11:49:56.625Z,101162.46
2018-07-24T11:52:26.035Z,101163.64
2018-07-24T11:54:55.418Z,101157.98
2018-07-24T11:57:24.845Z,101157.94
2018-07-24T11:59:54.213Z,101157.04
2018-07-24T12:02:23.652Z,101155.48
2018-07-24T12:04:53.042Z,101152.37
2018-07-24T12:07:22.443Z,101154.84
2018-07-24T12:09:51.930Z,101152.57
2018-07-24T12:12:21.378Z,101148.35
2018-07-24T12:14:50.971Z,101144.11
2018-07-24T12:17:20.306Z,101143.09
2018-07-24T12:19:49.690Z,101140.38
2018-07-24T12:22:19.080Z,101140.28
2018-07-24T12:24:48.455Z,101136.41
2018-07-24T12:27:17.890Z,101138.86
2018-07-24T12:29:47.217Z,101133.34
2018-07-24T12:32:16.581Z,101127.01
2018-07-24T12:34:46.017Z,101128.44
2018-07-24T12:37:15.400Z,101121.28
2018-07-24T12:39:44.728Z,101119.20
2018-07-24T12:42:14.196Z,101112.16
2018-07-24T12:44:43.699Z,101106.39
2018-07-24T12:47:13.374Z,101106.10
2018-07-24T12:49:42.807Z,101097.42
2018-07-24T12:52:12.210Z,101092.05
2018-07-24T12:54:41.598Z,101086.69
2018-07-24T12:57:11.034Z,101080.28
2018-07-24T12:59:40.450Z,101084.56
2018-07-24T13:02:09.909Z,101091.80
2018-07-24T13:04:39.337Z,101091.76
2018-07-24T13:07:08.891Z,101083.50
2018-07-24T13:09:38.710Z,101065.73
2018-07-24T13:12:08.258Z,101074.77
2018-07-24T13:14:37.653Z,101071.53
2018-07-24T13:17:07.953Z,101068.70
2018-07-24T13:19:37.417Z,101058.31
2018-07-24T13:22:06.917Z,101056.23
2018-07-24T13:24:36.460Z,101053.64
2018-07-24T13:27:05.758Z,101059.31
2018-07-24T13:29:34.966Z,101061.93
2018-07-24T13:32:04.429Z,101061.23
2018-07-24T13:34:33.706Z,101063.89
2018-07-24T13:37:03.061Z,101055.98
2018-07-24T13:39:32.877Z,101054.06
2018-07-24T13:42:02.372Z,101051.19
2018-07-24T13:44:31.734Z,101046.95
2018-07-24T13:47:01.198Z,101037.56
2018-07-24T13:49:30.577Z,101044.94
2018-07-24T13:51:59.979Z,101049.83
2018-07-24T13:54:29.327Z,101043.16
2018-07-24T13:56:58.673Z,101038.91
2018-07-24T13:59:28.198Z,101038.20
2018-07-24T14:01:57.931Z,101034.80
2018-07-24T14:04:27.192Z,101037.25
2018-07-24T14:06:56.598Z,101038.89
2018-07-24T14:09:26.330Z,101040.56
2018-07-24T14:11:55.726Z,101037.50
2018-07-24T14:14:25.138Z,101034.51
2018-07-24T14:16:54.608Z,101039.63
2018-07-24T14:19:23.906Z,101040.46
2018-07-24T14:21:53.251Z,101045.30
2018-07-24T14:24:22.633Z,101038.59
2018-07-24T14:26:52.005Z,101042.23
2018-07-24T14:29:21.454Z,101033.13
2018-07-24T14:31:50.817Z,101032.21
2018-07-24T14:34:20.167Z,101027.70
2018-07-24T14:36:49.579Z,101027.97
2018-07-24T14:39:19.025Z,101024.05
2018-07-24T14:41:48.415Z,101029.80
2018-07-24T14:44:17.838Z,101027.88
2018-07-24T14:46:47.398Z,101019.77
2018-07-24T14:49:16.738Z,101029.28
2018-07-24T14:51:46.126Z,101025.83
2018-07-24T14:54:15.810Z,101022.64
2018-07-24T14:56:45.190Z,101024.22
2018-07-24T14:59:14.610Z,101016.66
2018-07-24T15:01:44.029Z,101020.31
2018-07-24T15:04:13.406Z,101013.17
2018-07-24T15:06:42.769Z,101011.20
2018-07-24T15:09:13.086Z,101015.13
2018-07-24T15:11:42.514Z,101013.44
2018-07-24T15:14:11.754Z,101005.63
2018-07-24T15:16:41.126Z,101004.41
2018-07-24T15:19:10.502Z,101005.77
2018-07-24T15:21:40.215Z,101003.78
2018-07-24T15:24:09.629Z,101005.96
2018-07-24T15:26:39.115Z,101004.83
2018-07-24T15:29:08.929Z,101001.05
2018-07-24T15:31:38.304Z,100995.13
2018-07-24T15:34:07.983Z,100997.69
2018-07-24T15:36:37.303Z,100995.11
2018-07-24T15:39:11.079Z,100997.52
2018-07-24T15:41:41.088Z,101003.53
2018-07-24T15:44:10.455Z,101004.41
2018-07-24T15:46:39.723Z,101004.81
2018-07-24T15:49:09.259Z,101004.45
2018-07-24T15:51:38.634Z,100993.80
2018-07-24T15:54:08.022Z,100992.00
2018-07-24T15:56:37.572Z,100992.11
2018-07-24T15:59:07.035Z,100990.23
2018-07-24T16:01:36.442Z,100990.98
2018-07-24T16:04:05.871Z,100993.91
2018-07-24T16:06:35.199Z,100987.11
2018-07-24T16:09:06.646Z,100992.75
2018-07-24T16:11:35.808Z,100987.13
2018-07-24T16:14:05.320Z,100990.30
2018-07-24T16:16:34.693Z,100981.86
2018-07-24T16:19:04.367Z,100989.19
2018-07-24T16:21:33.732Z,100977.58
2018-07-24T16:24:03.118Z,100975.31
2018-07-24T16:26:32.529Z,100976.55
2018-07-24T16:29:01.610Z,100981.80
2018-07-24T16:31:30.998Z,100973.34
2018-07-24T16:34:00.473Z,100975.52
2018-07-24T16:36:29.869Z,100986.23
2018-07-24T16:38:59.277Z,100981.97
2018-07-24T16:41:28.638Z,100986.95
2018-07-24T16:43:58.160Z,100987.69
2018-07-24T16:46:27.441Z,100980.19
2018-07-24T16:48:56.833Z,100981.34
2018-07-24T16:51:26.417Z,100982.86
2018-07-24T16:53:55.862Z,100979.12
2018-07-24T16:56:25.422Z,100984.59
2018-07-24T16:58:54.945Z,100984.10
2018-07-24T17:01:24.439Z,100977.92
2018-07-24T17:03:54.247Z,100969.02
2018-07-24T17:06:23.594Z,100978.28
2018-07-24T17:08:53.135Z,100985.48
2018-07-24T17:11:22.678Z,100984.03
2018-07-24T17:13:52.146Z,100981.41
2018-07-24T17:16:21.560Z,100973.33
2018-07-24T17:18:51.124Z,100977.05
2018-07-24T17:21:20.442Z,100973.48
2018-07-24T17:23:49.841Z,100973.02
2018-07-24T17:26:19.436Z,100972.86
2018-07-24T17:28:48.745Z,100972.48
2018-07-24T17:31:18.110Z,100969.64
2018-07-24T17:33:48.249Z,100967.78
2018-07-24T17:36:17.685Z,100966.83
2018-07-24T17:38:47.445Z,100974.66
2018-07-24T17:41:17.035Z,100974.05
2018-07-24T17:43:46.522Z,100978.33
2018-07-24T17:46:16.526Z,100974.64
2018-07-24T17:48:46.181Z,100976.54
2018-07-24T17:51:15.627Z,100978.69
2018-07-24T17:53:44.991Z,100981.71
2018-07-24T17:56:14.476Z,100985.56
2018-07-24T17:58:44.047Z,100995.10
2018-07-24T18:01:13.502Z,100988.84
2018-07-24T18:03:42.863Z,100989.91
2018-07-24T18:06:12.326Z,101004.02
2018-07-24T18:08:42.263Z,101008.31
2018-07-24T18:11:11.607Z,101018.88
2018-07-24T18:13:41.257Z,101013.52
2018-07-24T18:16:10.722Z,101021.58
2018-07-24T18:18:40.106Z,101025.39
2018-07-24T18:21:09.878Z,101023.04
2018-07-24T18:23:40.021Z,101029.59
2018-07-24T18:26:09.450Z,101034.50
2018-07-24T18:28:38.580Z,101036.89
2018-07-24T18:31:08.047Z,101030.95
2018-07-24T18:33:37.505Z,101031.83
2018-07-24T18:36:06.998Z,101017.84
2018-07-24T18:38:36.426Z,101040.84
2018-07-24T18:41:05.890Z,101039.94
2018-07-24T18:43:35.237Z,101040.33
2018-07-24T18:46:04.629Z,101041.44
2018-07-24T18:48:34.008Z,101041.34
2018-07-24T18:51:03.427Z,101043.84
2018-07-24T18:53:32.994Z,101045.27
2018-07-24T18:56:02.758Z,101049.20
2018-07-24T18:58:32.251Z,101052.97
2018-07-24T19:01:02.186Z,101057.83
2018-07-24T19:03:31.589Z,101052.88
2018-07-24T19:06:01.629Z,101060.41
2018-07-24T19:08:31.035Z,101061.88
2018-07-24T19:11:00.449Z,101061.77
2018-07-24T19:13:29.793Z,101066.52
2018-07-24T19:15:59.542Z,101069.02
2018-07-24T19:18:29.233Z,101070.55
2018-07-24T19:20:58.839Z,101065.97
2018-07-24T19:23:28.205Z,101072.50
2018-07-24T19:25:57.767Z,101074.52
2018-07-24T19:28:27.073Z,101074.97
2018-07-24T19:30:56.446Z,101074.04
2018-07-24T19:33:25.855Z,101080.03
2018-07-24T19:35:55.254Z,101079.92
2018-07-24T19:38:24.640Z,101077.81
2018-07-24T19:40:54.042Z,101077.98
2018-07-24T19:43:23.459Z,101081.08
2018-07-24T19:45:52.816Z,101085.86
2018-07-24T19:48:22.311Z,101084.02
2018-07-24T19:50:51.786Z,101084.80
2018-07-24T19:53:21.137Z,101089.47
2018-07-24T19:55:50.597Z,101095.97
2018-07-24T19:58:19.989Z,101092.70
2018-07-24T20:00:49.648Z,101098.19
2018-07-24T20:03:19.008Z,101107.31
2018-07-24T20:05:48.494Z,101100.83
2018-07-24T20:08:18.105Z,101100.73
2018-07-24T20:10:47.458Z,101101.50
2018-07-24T20:13:17.066Z,101101.50
2018-07-24T20:15:46.413Z,101097.52
2018-07-24T20:18:15.806Z,101104.90
2018-07-24T20:20:45.239Z,101100.70
2018-07-24T20:23:14.631Z,101104.98
2018-07-24T20:25:44.082Z,101100.64
2018-07-24T20:28:13.413Z,101102.50
2018-07-24T20:30:42.959Z,101108.97
2018-07-24T20:33:12.374Z,101105.89
2018-07-24T20:35:41.924Z,101107.56
2018-07-24T20:38:11.249Z,101106.66
2018-07-24T20:40:40.617Z,101105.08
2018-07-24T20:43:10.089Z,101109.56
2018-07-24T20:45:39.483Z,101109.51
2018-07-24T20:48:08.988Z,101110.99
2018-07-24T20:50:38.461Z,101109.63
2018-07-24T20:53:07.918Z,101109.34
2018-07-24T20:55:37.429Z,101109.96
2018-07-24T20:58:06.891Z,101113.25
2018-07-24T21:00:39.581Z,101112.87
2018-07-24T21:03:08.749Z,101112.94
2018-07-24T21:05:38.308Z,101105.78
2018-07-24T21:08:08.131Z,101116.00
2018-07-24T21:10:37.870Z,101111.56
2018-07-24T21:13:08.780Z,101112.59
2018-07-24T21:15:39.369Z,101109.05
2018-07-24T21:18:08.817Z,101114.22
2018-07-24T21:20:38.366Z,101107.38
2018-07-24T21:23:12.143Z,101112.78
2018-07-24T21:25:41.597Z,101116.94
2018-07-24T21:28:11.567Z,101119.17
2018-07-24T21:30:40.924Z,101117.26
2018-07-24T21:33:10.354Z,101114.84
2018-07-24T21:35:39.759Z,101113.90
2018-07-24T21:38:09.253Z,101119.36
2018-07-24T21:40:38.898Z,101113.00
2018-07-24T21:43:08.343Z,101115.20
2018-07-24T21:45:37.892Z,101110.86
2018-07-24T21:48:07.297Z,101115.59
2018-07-24T21:50:36.812Z,101111.78
2018-07-24T21:53:06.089Z,101118.91
2018-07-24T21:55:35.454Z,101114.86
2018-07-24T21:58:05.190Z,101116.89
2018-07-24T22:00:37.440Z,101117.20
2018-07-24T22:03:09.064Z,101124.72
2018-07-24T22:05:38.454Z,101120.89
2018-07-24T22:08:07.894Z,101122.56
2018-07-24T22:10:37.613Z,101127.63
2018-07-24T22:13:07.303Z,101127.09
2018-07-24T22:15:37.005Z,101125.29
2018-07-24T22:18:06.536Z,101131.56
2018-07-24T22:20:36.577Z,101130.67
2018-07-24T22:23:06.642Z,101135.20
2018-07-24T22:25:35.942Z,101135.88
2018-07-24T22:28:05.164Z,101139.00
2018-07-24T22:30:35.162Z,101139.21
2018-07-24T22:33:04.661Z,101141.19
2018-07-24T22:35:34.120Z,101136.01
2018-07-24T22:38:03.522Z,101140.23
2018-07-24T22:40:32.898Z,101135.59
2018-07-24T22:43:02.339Z,101137.62
2018-07-24T22:45:31.713Z,101133.23
2018-07-24T22:48:01.146Z,101138.38
2018-07-24T22:50:30.545Z,101139.07
2018-07-24T22:52:59.863Z,101132.50
2018-07-24T22:55:29.256Z,101133.04
2018-07-24T22:57:58.694Z,101140.48
2018-07-24T23:00:28.062Z,101142.88
2018-07-24T23:02:57.186Z,101142.15
2018-07-24T23:05:26.633Z,101140.36
2018-07-24T23:07:56.066Z,101137.92
2018-07-24T23:10:30.745Z,101132.31
2018-07-24T23:13:00.657Z,101134.92
2018-07-24T23:15:30.223Z,101136.86
2018-07-24T23:17:59.777Z,101139.41
2018-07-24T23:20:29.499Z,101135.22
2018-07-24T23:22:58.883Z,101138.62
2018-07-24T23:25:28.338Z,101139.78
2018-07-24T23:27:57.763Z,101139.05
2018-07-24T23:30:27.125Z,101144.58
2018-07-24T23:32:56.554Z,101141.45
2018-07-24T23:35:25.938Z,101142.88
2018-07-24T23:37:55.530Z,101144.98
2018-07-24T23:40:25.805Z,101144.00
2018-07-24T23:42:55.457Z,101142.94
2018-07-24T23:45:24.651Z,101141.70
2018-07-24T23:47:53.857Z,101134.26
2018-07-24T23:50:23.206Z,101134.80
2018-07-24T23:52:52.514Z,101134.02
2018-07-24T23:55:22.134Z,101130.52
2018-07-24T23:57:51.655Z,101126.11
